CEB357 RPLL-RPVR
Flight info
| Callsign | CEB357 |
|---|---|
| Flight time | 0h 38m |
| Altitude | 27000 |
| Route | IPATA2V IPATA DCT SAGRA VOR 32 |
| Aircraft | A320/M-SDE3FGHIRWY/LB1 |
Departure
| Time | 2026-04-30 06:03 |
|---|---|
| Airport | Ninoy Aquino International Airport (RPLL) |
Arrival
| Time | 2026-04-30 06:42 |
|---|---|
| Airport | Roxas Airport (RPVR) |
| Time | Latitude | Longitude | Altitude | Speed | Heading |
|---|---|---|---|---|---|
| 2026-04-30 05:44 | 14.51950 | 121.01232 | 69 ft | 0 kts | 45° |
| 2026-04-30 05:56 | 14.51940 | 121.01221 | 59 ft | 2 kts | 45° |
| 2026-04-30 05:56 | 14.51928 | 121.01209 | 64 ft | 2 kts | 44° |
| 2026-04-30 05:57 | 14.51916 | 121.01197 | 59 ft | 2 kts | 44° |
| 2026-04-30 05:57 | 14.51904 | 121.01185 | 61 ft | 2 kts | 42° |
| 2026-04-30 05:57 | 14.51892 | 121.01174 | 60 ft | 2 kts | 38° |
| 2026-04-30 05:57 | 14.51878 | 121.01164 | 61 ft | 2 kts | 15° |
| 2026-04-30 05:58 | 14.51867 | 121.01166 | 64 ft | 1 kts | 314° |
| 2026-04-30 05:58 | 14.51866 | 121.01166 | 65 ft | 0 kts | 315° |
| 2026-04-30 05:59 | 14.51867 | 121.01166 | 64 ft | 1 kts | 315° |
| 2026-04-30 05:59 | 14.51882 | 121.01150 | 61 ft | 10 kts | 315° |
| 2026-04-30 05:59 | 14.52022 | 121.01005 | 62 ft | 32 kts | 316° |
| 2026-04-30 06:00 | 14.52141 | 121.00886 | 69 ft | 40 kts | 317° |
| 2026-04-30 06:00 | 14.52349 | 121.00672 | 64 ft | 41 kts | 313° |
| 2026-04-30 06:00 | 14.52489 | 121.00518 | 67 ft | 10 kts | 292° |
| 2026-04-30 06:00 | 14.52479 | 121.00485 | 63 ft | 5 kts | 233° |
| 2026-04-30 06:01 | 14.52446 | 121.00451 | 68 ft | 9 kts | 226° |
| 2026-04-30 06:01 | 14.52396 | 121.00399 | 59 ft | 9 kts | 212° |
| 2026-04-30 06:01 | 14.52349 | 121.00415 | 68 ft | 8 kts | 134° |
| 2026-04-30 06:01 | 14.52321 | 121.00445 | 68 ft | 0 kts | 134° |
| 2026-04-30 06:02 | 14.52172 | 121.00602 | 65 ft | 75 kts | 136° |
| 2026-04-30 06:03 | 14.51611 | 121.01186 | 69 ft | 150 kts | 134° |
| 2026-04-30 06:03 | 14.50741 | 121.02007 | 510 ft | 181 kts | 137° |
| 2026-04-30 06:03 | 14.49770 | 121.02903 | 1438 ft | 189 kts | 134° |
| 2026-04-30 06:03 | 14.48867 | 121.03856 | 2433 ft | 188 kts | 131° |
| 2026-04-30 06:04 | 14.47939 | 121.04878 | 2993 ft | 203 kts | 130° |
| 2026-04-30 06:04 | 14.46922 | 121.05985 | 3425 ft | 224 kts | 131° |
| 2026-04-30 06:04 | 14.45774 | 121.07201 | 3879 ft | 249 kts | 132° |
| 2026-04-30 06:05 | 14.43234 | 121.09914 | 5408 ft | 268 kts | 127° |
| 2026-04-30 06:05 | 14.42176 | 121.11501 | 6332 ft | 270 kts | 120° |
| 2026-04-30 06:05 | 14.41164 | 121.13154 | 7146 ft | 275 kts | 121° |
| 2026-04-30 06:05 | 14.40131 | 121.14827 | 8015 ft | 277 kts | 121° |
| 2026-04-30 06:06 | 14.39089 | 121.16505 | 8906 ft | 280 kts | 121° |
| 2026-04-30 06:06 | 14.38034 | 121.18202 | 9780 ft | 282 kts | 121° |
| 2026-04-30 06:06 | 14.36963 | 121.19925 | 10420 ft | 292 kts | 121° |
| 2026-04-30 06:06 | 14.35824 | 121.21759 | 10676 ft | 315 kts | 121° |
| 2026-04-30 06:07 | 14.34598 | 121.23732 | 10964 ft | 336 kts | 121° |
| 2026-04-30 06:07 | 14.33326 | 121.25777 | 11596 ft | 341 kts | 122° |
| 2026-04-30 06:07 | 14.32036 | 121.27846 | 12324 ft | 344 kts | 121° |
| 2026-04-30 06:07 | 14.30733 | 121.29938 | 12986 ft | 350 kts | 121° |
| 2026-04-30 06:08 | 14.29409 | 121.32063 | 13660 ft | 354 kts | 121° |
| 2026-04-30 06:08 | 14.28072 | 121.34209 | 14277 ft | 357 kts | 122° |
| 2026-04-30 06:08 | 14.26724 | 121.36375 | 14889 ft | 360 kts | 122° |
| 2026-04-30 06:08 | 14.25366 | 121.38553 | 15541 ft | 362 kts | 122° |
| 2026-04-30 06:09 | 14.23999 | 121.40748 | 16143 ft | 366 kts | 122° |
| 2026-04-30 06:09 | 14.22615 | 121.42966 | 16710 ft | 370 kts | 122° |
| 2026-04-30 06:09 | 14.21216 | 121.45204 | 17316 ft | 373 kts | 122° |
| 2026-04-30 06:09 | 14.19807 | 121.47460 | 17906 ft | 376 kts | 122° |
| 2026-04-30 06:10 | 14.18390 | 121.49729 | 18436 ft | 378 kts | 122° |
| 2026-04-30 06:10 | 14.16957 | 121.52021 | 18911 ft | 382 kts | 122° |
| 2026-04-30 06:10 | 14.15509 | 121.54338 | 19358 ft | 387 kts | 122° |
| 2026-04-30 06:10 | 14.14047 | 121.56677 | 19833 ft | 390 kts | 122° |
| 2026-04-30 06:11 | 14.12571 | 121.59037 | 20310 ft | 393 kts | 122° |
| 2026-04-30 06:11 | 14.11056 | 121.61399 | 20762 ft | 397 kts | 126° |
| 2026-04-30 06:11 | 14.09288 | 121.63601 | 21206 ft | 401 kts | 133° |
| 2026-04-30 06:11 | 14.07243 | 121.65572 | 21653 ft | 405 kts | 140° |
| 2026-04-30 06:12 | 14.04982 | 121.67321 | 22104 ft | 408 kts | 143° |
| 2026-04-30 06:12 | 14.02687 | 121.69061 | 22562 ft | 411 kts | 143° |
| 2026-04-30 06:12 | 14.00379 | 121.70822 | 22998 ft | 415 kts | 143° |
| 2026-04-30 06:12 | 13.98054 | 121.72598 | 23442 ft | 418 kts | 143° |
| 2026-04-30 06:13 | 13.95709 | 121.74387 | 23821 ft | 420 kts | 143° |
| 2026-04-30 06:13 | 13.93356 | 121.76181 | 24219 ft | 422 kts | 143° |
| 2026-04-30 06:13 | 13.90995 | 121.77981 | 24631 ft | 424 kts | 143° |
| 2026-04-30 06:13 | 13.88595 | 121.79754 | 24998 ft | 426 kts | 147° |
| 2026-04-30 06:14 | 13.86072 | 121.81360 | 25369 ft | 427 kts | 151° |
| 2026-04-30 06:14 | 13.83432 | 121.82781 | 25737 ft | 429 kts | 155° |
| 2026-04-30 06:14 | 13.80702 | 121.84043 | 26076 ft | 431 kts | 156° |
| 2026-04-30 06:14 | 13.77956 | 121.85301 | 26408 ft | 434 kts | 156° |
| 2026-04-30 06:15 | 13.75194 | 121.86573 | 26728 ft | 436 kts | 156° |
| 2026-04-30 06:15 | 13.72418 | 121.87853 | 26903 ft | 438 kts | 156° |
| 2026-04-30 06:15 | 13.69635 | 121.89134 | 26898 ft | 437 kts | 156° |
| 2026-04-30 06:15 | 13.66861 | 121.90410 | 26893 ft | 437 kts | 156° |
| 2026-04-30 06:16 | 13.64082 | 121.91687 | 26896 ft | 438 kts | 156° |
| 2026-04-30 06:16 | 13.61303 | 121.92964 | 26892 ft | 438 kts | 156° |
| 2026-04-30 06:16 | 13.58523 | 121.94241 | 26894 ft | 438 kts | 156° |
| 2026-04-30 06:16 | 13.55744 | 121.95517 | 26894 ft | 438 kts | 156° |
| 2026-04-30 06:17 | 13.54843 | 121.95931 | 26895 ft | 438 kts | 156° |
| 2026-04-30 06:17 | 13.54625 | 121.96030 | 26893 ft | 438 kts | 156° |
| 2026-04-30 06:17 | 13.52935 | 121.96806 | 26895 ft | 438 kts | 156° |
| 2026-04-30 06:18 | 13.50153 | 121.98082 | 26894 ft | 437 kts | 156° |
| 2026-04-30 06:18 | 13.47372 | 121.99357 | 26893 ft | 438 kts | 156° |
| 2026-04-30 06:18 | 13.44928 | 122.00479 | 26898 ft | 438 kts | 156° |
| 2026-04-30 06:18 | 13.42145 | 122.01756 | 26898 ft | 438 kts | 156° |
| 2026-04-30 06:19 | 13.39639 | 122.02906 | 26898 ft | 438 kts | 156° |
| 2026-04-30 06:19 | 13.38584 | 122.03390 | 26897 ft | 438 kts | 156° |
| 2026-04-30 06:19 | 13.35962 | 122.04593 | 26894 ft | 438 kts | 156° |
| 2026-04-30 06:19 | 13.33175 | 122.05870 | 26895 ft | 439 kts | 156° |
| 2026-04-30 06:20 | 13.30388 | 122.07145 | 26895 ft | 439 kts | 156° |
| 2026-04-30 06:20 | 13.27601 | 122.08421 | 26898 ft | 439 kts | 156° |
| 2026-04-30 06:20 | 13.24809 | 122.09699 | 26897 ft | 439 kts | 156° |
| 2026-04-30 06:20 | 13.22020 | 122.10975 | 26901 ft | 439 kts | 156° |
| 2026-04-30 06:21 | 13.19227 | 122.12252 | 26899 ft | 439 kts | 156° |
| 2026-04-30 06:21 | 13.16434 | 122.13530 | 26899 ft | 440 kts | 156° |
| 2026-04-30 06:21 | 13.13639 | 122.14808 | 26901 ft | 440 kts | 156° |
| 2026-04-30 06:21 | 13.10846 | 122.16085 | 26901 ft | 440 kts | 156° |
| 2026-04-30 06:22 | 13.08053 | 122.17362 | 26895 ft | 440 kts | 156° |
| 2026-04-30 06:22 | 13.05259 | 122.18639 | 26900 ft | 439 kts | 156° |
| 2026-04-30 06:22 | 13.02468 | 122.19914 | 26896 ft | 439 kts | 156° |
| 2026-04-30 06:22 | 12.99676 | 122.21189 | 26898 ft | 440 kts | 156° |
| 2026-04-30 06:23 | 12.96880 | 122.22466 | 26893 ft | 440 kts | 156° |
| 2026-04-30 06:23 | 12.94084 | 122.23743 | 26707 ft | 439 kts | 156° |
| 2026-04-30 06:23 | 12.91294 | 122.25016 | 26261 ft | 439 kts | 156° |
| 2026-04-30 06:23 | 12.88491 | 122.26294 | 25516 ft | 442 kts | 155° |
| 2026-04-30 06:24 | 12.85698 | 122.27567 | 24978 ft | 436 kts | 155° |
| 2026-04-30 06:24 | 12.82940 | 122.28824 | 24399 ft | 432 kts | 155° |
| 2026-04-30 06:24 | 12.80207 | 122.30070 | 23797 ft | 428 kts | 155° |
| 2026-04-30 06:24 | 12.77488 | 122.31309 | 22987 ft | 428 kts | 155° |
| 2026-04-30 06:25 | 12.74773 | 122.32546 | 22300 ft | 425 kts | 155° |
| 2026-04-30 06:25 | 12.72105 | 122.33761 | 21893 ft | 414 kts | 155° |
| 2026-04-30 06:25 | 12.69493 | 122.34950 | 21318 ft | 408 kts | 155° |
| 2026-04-30 06:25 | 12.66912 | 122.36125 | 20730 ft | 404 kts | 155° |
| 2026-04-30 06:26 | 12.64359 | 122.37288 | 20140 ft | 400 kts | 155° |
| 2026-04-30 06:26 | 12.61830 | 122.38439 | 19564 ft | 396 kts | 154° |
| 2026-04-30 06:26 | 12.59322 | 122.39580 | 18982 ft | 393 kts | 154° |
| 2026-04-30 06:26 | 12.56836 | 122.40711 | 18404 ft | 390 kts | 154° |
| 2026-04-30 06:27 | 12.54367 | 122.41835 | 17784 ft | 387 kts | 154° |
| 2026-04-30 06:27 | 12.51925 | 122.42946 | 17207 ft | 382 kts | 154° |
| 2026-04-30 06:27 | 12.49511 | 122.44045 | 16647 ft | 377 kts | 154° |
| 2026-04-30 06:27 | 12.47126 | 122.45131 | 16087 ft | 373 kts | 154° |
| 2026-04-30 06:28 | 12.44762 | 122.46206 | 15527 ft | 370 kts | 154° |
| 2026-04-30 06:28 | 12.42417 | 122.47272 | 14972 ft | 368 kts | 154° |
| 2026-04-30 06:28 | 12.40081 | 122.48323 | 14435 ft | 365 kts | 155° |
| 2026-04-30 06:28 | 12.37762 | 122.49367 | 13897 ft | 363 kts | 155° |
| 2026-04-30 06:29 | 12.35457 | 122.50408 | 13258 ft | 362 kts | 154° |
| 2026-04-30 06:29 | 12.33156 | 122.51461 | 12613 ft | 361 kts | 154° |
| 2026-04-30 06:29 | 12.30899 | 122.52497 | 12289 ft | 350 kts | 154° |
| 2026-04-30 06:29 | 12.28688 | 122.53508 | 11822 ft | 347 kts | 154° |
| 2026-04-30 06:30 | 12.26493 | 122.54509 | 11303 ft | 344 kts | 154° |
| 2026-04-30 06:30 | 12.24316 | 122.55499 | 10786 ft | 341 kts | 154° |
| 2026-04-30 06:30 | 12.22157 | 122.56479 | 10338 ft | 336 kts | 154° |
| 2026-04-30 06:30 | 12.20064 | 122.57427 | 10196 ft | 322 kts | 154° |
| 2026-04-30 06:31 | 12.18065 | 122.58332 | 10074 ft | 307 kts | 154° |
| 2026-04-30 06:31 | 12.16155 | 122.59197 | 9954 ft | 293 kts | 154° |
| 2026-04-30 06:31 | 12.14313 | 122.60033 | 9690 ft | 290 kts | 153° |
| 2026-04-30 06:31 | 12.12468 | 122.60872 | 9281 ft | 289 kts | 153° |
| 2026-04-30 06:32 | 12.10638 | 122.61701 | 8904 ft | 286 kts | 155° |
| 2026-04-30 06:32 | 12.08735 | 122.62338 | 8416 ft | 289 kts | 165° |
| 2026-04-30 06:32 | 12.06764 | 122.62660 | 8122 ft | 286 kts | 169° |
| 2026-04-30 06:32 | 12.04800 | 122.62959 | 7753 ft | 285 kts | 168° |
| 2026-04-30 06:33 | 12.02846 | 122.63268 | 7373 ft | 283 kts | 168° |
| 2026-04-30 06:33 | 12.00932 | 122.63573 | 7004 ft | 281 kts | 168° |
| 2026-04-30 06:33 | 11.99005 | 122.63880 | 6628 ft | 279 kts | 168° |
| 2026-04-30 06:33 | 11.97061 | 122.64188 | 6232 ft | 278 kts | 168° |
| 2026-04-30 06:34 | 11.95180 | 122.64486 | 5860 ft | 276 kts | 168° |
| 2026-04-30 06:34 | 11.93291 | 122.64785 | 5484 ft | 274 kts | 168° |
| 2026-04-30 06:34 | 11.91416 | 122.65081 | 5121 ft | 272 kts | 168° |
| 2026-04-30 06:34 | 11.89557 | 122.65375 | 4799 ft | 269 kts | 168° |
| 2026-04-30 06:35 | 11.87686 | 122.65671 | 4638 ft | 277 kts | 168° |
| 2026-04-30 06:35 | 11.85766 | 122.65975 | 4433 ft | 276 kts | 168° |
| 2026-04-30 06:35 | 11.83923 | 122.66262 | 4294 ft | 259 kts | 168° |
| 2026-04-30 06:35 | 11.82199 | 122.66529 | 4154 ft | 242 kts | 168° |
| 2026-04-30 06:36 | 11.80600 | 122.66778 | 4013 ft | 224 kts | 167° |
| 2026-04-30 06:36 | 11.79132 | 122.67007 | 3922 ft | 205 kts | 167° |
| 2026-04-30 06:36 | 11.77789 | 122.67217 | 3784 ft | 186 kts | 167° |
| 2026-04-30 06:36 | 11.76594 | 122.67402 | 3677 ft | 160 kts | 166° |
| 2026-04-30 06:37 | 11.75563 | 122.67562 | 3500 ft | 143 kts | 165° |
| 2026-04-30 06:37 | 11.74595 | 122.67719 | 3201 ft | 140 kts | 165° |
| 2026-04-30 06:37 | 11.73644 | 122.67876 | 3016 ft | 140 kts | 165° |
| 2026-04-30 06:37 | 11.72679 | 122.68034 | 2928 ft | 141 kts | 165° |
| 2026-04-30 06:38 | 11.71716 | 122.68188 | 2834 ft | 140 kts | 165° |
| 2026-04-30 06:38 | 11.70756 | 122.68340 | 2734 ft | 140 kts | 165° |
| 2026-04-30 06:38 | 11.69793 | 122.68492 | 2577 ft | 140 kts | 165° |
| 2026-04-30 06:38 | 11.68838 | 122.68665 | 2391 ft | 138 kts | 157° |
| 2026-04-30 06:39 | 11.68017 | 122.69112 | 2210 ft | 132 kts | 136° |
| 2026-04-30 06:39 | 11.67289 | 122.69709 | 1954 ft | 135 kts | 137° |
| 2026-04-30 06:39 | 11.66544 | 122.70283 | 1691 ft | 133 kts | 139° |
| 2026-04-30 06:39 | 11.65773 | 122.70835 | 1421 ft | 137 kts | 141° |
| 2026-04-30 06:40 | 11.64982 | 122.71364 | 1137 ft | 135 kts | 141° |
| 2026-04-30 06:40 | 11.64219 | 122.71927 | 898 ft | 135 kts | 139° |
| 2026-04-30 06:40 | 11.63506 | 122.72549 | 765 ft | 136 kts | 136° |
| 2026-04-30 06:40 | 11.62773 | 122.73163 | 670 ft | 138 kts | 144° |
| 2026-04-30 06:41 | 11.61968 | 122.73703 | 379 ft | 137 kts | 143° |
| 2026-04-30 06:41 | 11.61183 | 122.74259 | 220 ft | 137 kts | 142° |
| 2026-04-30 06:41 | 11.60410 | 122.74820 | 43 ft | 135 kts | 141° |
| 2026-04-30 06:41 | 11.59711 | 122.75329 | 11 ft | 93 kts | 145° |
| 2026-04-30 06:42 | 11.59463 | 122.75505 | 8 ft | 37 kts | 146° |